sensor_id;sensor_type;location;lat;lon;timestamp;pressure;altitude;pressure_sealevel;temperature;humidity
59545;BME280;45368;55.002;-1.592;2022-10-16T00:01:07;98660.42;;;8.25;69.24
59545;BME280;45368;55.002;-1.592;2022-10-16T00:03:35;98673.18;;;9.20;67.65
59545;BME280;45368;55.002;-1.592;2022-10-16T00:06:03;98675.30;;;8.62;68.16
59545;BME280;45368;55.002;-1.592;2022-10-16T00:08:30;98674.43;;;8.21;68.75
59545;BME280;45368;55.002;-1.592;2022-10-16T00:11:00;98666.13;;;8.52;68.65
59545;BME280;45368;55.002;-1.592;2022-10-16T00:13:28;98668.64;;;8.54;69.16
59545;BME280;45368;55.002;-1.592;2022-10-16T00:15:55;98663.45;;;8.50;69.32
59545;BME280;45368;55.002;-1.592;2022-10-16T00:18:22;98664.09;;;7.80;70.69
59545;BME280;45368;55.002;-1.592;2022-10-16T00:20:49;98663.95;;;7.58;71.89
59545;BME280;45368;55.002;-1.592;2022-10-16T00:23:16;98669.42;;;8.18;70.03
59545;BME280;45368;55.002;-1.592;2022-10-16T00:25:44;98671.06;;;8.57;69.08
59545;BME280;45368;55.002;-1.592;2022-10-16T00:28:11;98673.77;;;8.40;68.14
59545;BME280;45368;55.002;-1.592;2022-10-16T00:30:38;98672.20;;;8.62;68.16
59545;BME280;45368;55.002;-1.592;2022-10-16T00:33:05;98666.37;;;7.95;68.74
59545;BME280;45368;55.002;-1.592;2022-10-16T00:35:32;98669.02;;;8.51;67.96
59545;BME280;45368;55.002;-1.592;2022-10-16T00:37:59;98671.44;;;8.43;67.98
59545;BME280;45368;55.002;-1.592;2022-10-16T00:40:27;98668.86;;;7.54;70.09
59545;BME280;45368;55.002;-1.592;2022-10-16T00:42:55;98668.32;;;7.76;69.80
59545;BME280;45368;55.002;-1.592;2022-10-16T00:45:22;98660.59;;;7.85;69.45
59545;BME280;45368;55.002;-1.592;2022-10-16T00:47:50;98661.52;;;8.63;67.87
59545;BME280;45368;55.002;-1.592;2022-10-16T00:50:24;98667.51;;;8.29;67.61
59545;BME280;45368;55.002;-1.592;2022-10-16T00:52:54;98676.55;;;8.50;67.08
59545;BME280;45368;55.002;-1.592;2022-10-16T00:55:22;98680.68;;;8.23;67.36
59545;BME280;45368;55.002;-1.592;2022-10-16T00:57:51;98676.64;;;8.26;66.98
59545;BME280;45368;55.002;-1.592;2022-10-16T01:00:21;98682.14;;;8.45;66.24
59545;BME280;45368;55.002;-1.592;2022-10-16T01:02:53;98684.71;;;8.94;65.10
59545;BME280;45368;55.002;-1.592;2022-10-16T01:05:21;98678.73;;;8.00;67.03
59545;BME280;45368;55.002;-1.592;2022-10-16T01:07:56;98686.16;;;8.23;66.84
59545;BME280;45368;55.002;-1.592;2022-10-16T01:10:30;98677.26;;;7.63;67.34
59545;BME280;45368;55.002;-1.592;2022-10-16T01:13:04;98691.39;;;7.43;68.29
59545;BME280;45368;55.002;-1.592;2022-10-16T01:15:35;98687.08;;;8.03;67.21
59545;BME280;45368;55.002;-1.592;2022-10-16T01:18:10;98689.19;;;7.26;67.56
59545;BME280;45368;55.002;-1.592;2022-10-16T01:20:43;98682.39;;;7.33;68.84
59545;BME280;45368;55.002;-1.592;2022-10-16T01:23:23;98687.89;;;8.33;65.79
59545;BME280;45368;55.002;-1.592;2022-10-16T01:26:09;98689.49;;;8.05;65.04
59545;BME280;45368;55.002;-1.592;2022-10-16T01:28:42;98697.17;;;8.83;63.52
59545;BME280;45368;55.002;-1.592;2022-10-16T01:31:16;98699.95;;;8.36;64.66
59545;BME280;45368;55.002;-1.592;2022-10-16T01:33:51;98702.12;;;8.46;63.58
59545;BME280;45368;55.002;-1.592;2022-10-16T01:36:26;98704.19;;;8.35;64.68
59545;BME280;45368;55.002;-1.592;2022-10-16T01:38:57;98713.28;;;8.57;63.28
59545;BME280;45368;55.002;-1.592;2022-10-16T01:41:30;98718.55;;;8.54;63.47
59545;BME280;45368;55.002;-1.592;2022-10-16T01:44:03;98731.53;;;9.11;62.22
59545;BME280;45368;55.002;-1.592;2022-10-16T01:46:35;98741.33;;;9.11;61.99
59545;BME280;45368;55.002;-1.592;2022-10-16T01:49:03;98751.62;;;9.30;61.73
59545;BME280;45368;55.002;-1.592;2022-10-16T01:51:30;98752.17;;;9.59;60.29
59545;BME280;45368;55.002;-1.592;2022-10-16T01:54:00;98760.14;;;9.83;60.22
59545;BME280;45368;55.002;-1.592;2022-10-16T01:56:29;98770.94;;;8.71;60.66
59545;BME280;45368;55.002;-1.592;2022-10-16T01:59:00;98782.24;;;8.61;61.99
59545;BME280;45368;55.002;-1.592;2022-10-16T02:01:31;98787.89;;;8.11;62.58
59545;BME280;45368;55.002;-1.592;2022-10-16T02:04:03;98794.23;;;9.21;59.91
59545;BME280;45368;55.002;-1.592;2022-10-16T02:06:32;98796.16;;;8.78;60.29
59545;BME280;45368;55.002;-1.592;2022-10-16T02:09:00;98794.42;;;9.16;59.60
59545;BME280;45368;55.002;-1.592;2022-10-16T02:11:27;98801.62;;;9.06;58.43
59545;BME280;45368;55.002;-1.592;2022-10-16T02:13:58;98807.51;;;9.32;58.33
59545;BME280;45368;55.002;-1.592;2022-10-16T02:16:33;98805.28;;;8.96;58.49
59545;BME280;45368;55.002;-1.592;2022-10-16T02:19:01;98809.73;;;8.44;60.86
59545;BME280;45368;55.002;-1.592;2022-10-16T02:21:33;98813.55;;;8.74;59.73
59545;BME280;45368;55.002;-1.592;2022-10-16T02:24:05;98822.16;;;9.39;57.52
59545;BME280;45368;55.002;-1.592;2022-10-16T02:26:39;98823.46;;;9.69;56.27
59545;BME280;45368;55.002;-1.592;2022-10-16T02:29:11;98824.77;;;9.42;56.77
59545;BME280;45368;55.002;-1.592;2022-10-16T02:31:41;98842.29;;;9.06;57.77
59545;BME280;45368;55.002;-1.592;2022-10-16T02:34:12;98843.33;;;8.45;59.40
59545;BME280;45368;55.002;-1.592;2022-10-16T02:36:41;98856.76;;;9.32;57.40
59545;BME280;45368;55.002;-1.592;2022-10-16T02:39:09;98862.25;;;9.21;57.24
59545;BME280;45368;55.002;-1.592;2022-10-16T02:41:38;98869.69;;;9.35;56.74
59545;BME280;45368;55.002;-1.592;2022-10-16T02:44:05;98878.44;;;9.12;57.03
59545;BME280;45368;55.002;-1.592;2022-10-16T02:46:32;98884.51;;;8.44;59.23
59545;BME280;45368;55.002;-1.592;2022-10-16T02:48:59;98873.21;;;8.50;59.09
59545;BME280;45368;55.002;-1.592;2022-10-16T02:51:26;98877.01;;;8.63;59.12
59545;BME280;45368;55.002;-1.592;2022-10-16T02:53:53;98874.39;;;8.55;59.41
59545;BME280;45368;55.002;-1.592;2022-10-16T02:56:20;98872.72;;;9.31;57.56
59545;BME280;45368;55.002;-1.592;2022-10-16T02:58:47;98875.89;;;9.12;57.15
59545;BME280;45368;55.002;-1.592;2022-10-16T03:01:14;98884.89;;;9.16;57.29
59545;BME280;45368;55.002;-1.592;2022-10-16T03:03:41;98891.96;;;8.58;58.35
59545;BME280;45368;55.002;-1.592;2022-10-16T03:06:08;98886.10;;;9.17;57.86
59545;BME280;45368;55.002;-1.592;2022-10-16T03:08:35;98886.44;;;9.00;57.63
59545;BME280;45368;55.002;-1.592;2022-10-16T03:11:02;98880.72;;;8.72;58.14
59545;BME280;45368;55.002;-1.592;2022-10-16T03:13:29;98890.04;;;8.76;58.27
59545;BME280;45368;55.002;-1.592;2022-10-16T03:15:56;98898.20;;;8.52;58.13
59545;BME280;45368;55.002;-1.592;2022-10-16T03:18:23;98894.82;;;8.40;59.60
59545;BME280;45368;55.002;-1.592;2022-10-16T03:20:50;98899.86;;;8.13;59.38
59545;BME280;45368;55.002;-1.592;2022-10-16T03:23:17;98903.46;;;8.58;58.70
59545;BME280;45368;55.002;-1.592;2022-10-16T03:25:44;98914.42;;;8.30;58.87
59545;BME280;45368;55.002;-1.592;2022-10-16T03:28:11;98910.28;;;8.04;59.68
59545;BME280;45368;55.002;-1.592;2022-10-16T03:30:39;98918.99;;;8.22;59.47
59545;BME280;45368;55.002;-1.592;2022-10-16T03:33:06;98917.20;;;8.55;58.42
59545;BME280;45368;55.002;-1.592;2022-10-16T03:35:33;98922.33;;;8.88;57.73
59545;BME280;45368;55.002;-1.592;2022-10-16T03:38:00;98925.73;;;8.64;58.73
59545;BME280;45368;55.002;-1.592;2022-10-16T03:40:27;98933.12;;;7.99;59.71
59545;BME280;45368;55.002;-1.592;2022-10-16T03:42:54;98938.60;;;7.60;60.15
59545;BME280;45368;55.002;-1.592;2022-10-16T03:45:21;98933.29;;;8.04;59.98
59545;BME280;45368;55.002;-1.592;2022-10-16T03:47:48;98942.35;;;7.58;60.32
59545;BME280;45368;55.002;-1.592;2022-10-16T03:50:16;98937.25;;;7.56;60.68
59545;BME280;45368;55.002;-1.592;2022-10-16T03:52:43;98943.20;;;7.33;61.03
59545;BME280;45368;55.002;-1.592;2022-10-16T03:55:10;98954.30;;;7.18;60.99
59545;BME280;45368;55.002;-1.592;2022-10-16T03:57:37;98965.10;;;7.25;60.81
59545;BME280;45368;55.002;-1.592;2022-10-16T04:00:05;98959.07;;;7.09;61.33
59545;BME280;45368;55.002;-1.592;2022-10-16T04:02:32;98965.29;;;7.11;60.98
59545;BME280;45368;55.002;-1.592;2022-10-16T04:05:00;98967.34;;;7.35;60.76
59545;BME280;45368;55.002;-1.592;2022-10-16T04:07:27;98972.66;;;7.15;60.64
59545;BME280;45368;55.002;-1.592;2022-10-16T04:09:54;98978.63;;;7.59;59.80
59545;BME280;45368;55.002;-1.592;2022-10-16T04:12:21;98986.26;;;7.52;58.91
59545;BME280;45368;55.002;-1.592;2022-10-16T04:14:48;98999.92;;;7.37;60.29
59545;BME280;45368;55.002;-1.592;2022-10-16T04:17:15;98997.94;;;7.08;60.10
59545;BME280;45368;55.002;-1.592;2022-10-16T04:19:42;98994.11;;;6.96;60.58
59545;BME280;45368;55.002;-1.592;2022-10-16T04:22:09;98993.85;;;7.34;58.67
59545;BME280;45368;55.002;-1.592;2022-10-16T04:24:35;99004.21;;;7.55;58.38
59545;BME280;45368;55.002;-1.592;2022-10-16T04:27:03;98995.58;;;8.07;57.85
59545;BME280;45368;55.002;-1.592;2022-10-16T04:29:30;99006.58;;;8.23;56.10
59545;BME280;45368;55.002;-1.592;2022-10-16T04:31:57;99009.93;;;8.22;55.95
59545;BME280;45368;55.002;-1.592;2022-10-16T04:34:24;99013.24;;;7.96;55.87
59545;BME280;45368;55.002;-1.592;2022-10-16T04:36:51;99017.76;;;7.45;56.69
59545;BME280;45368;55.002;-1.592;2022-10-16T04:39:18;99029.10;;;7.62;56.47
59545;BME280;45368;55.002;-1.592;2022-10-16T04:41:44;99031.67;;;7.28;56.93
59545;BME280;45368;55.002;-1.592;2022-10-16T04:44:11;99039.71;;;7.35;56.50
59545;BME280;45368;55.002;-1.592;2022-10-16T04:46:38;99052.97;;;7.57;56.19
59545;BME280;45368;55.002;-1.592;2022-10-16T04:49:05;99055.90;;;7.57;54.75
59545;BME280;45368;55.002;-1.592;2022-10-16T04:51:32;99050.78;;;8.01;54.77
59545;BME280;45368;55.002;-1.592;2022-10-16T04:54:00;99052.93;;;7.16;56.62
59545;BME280;45368;55.002;-1.592;2022-10-16T04:56:27;99066.38;;;7.35;56.77
59545;BME280;45368;55.002;-1.592;2022-10-16T04:58:54;99061.47;;;7.13;58.49
59545;BME280;45368;55.002;-1.592;2022-10-16T05:01:21;99056.89;;;7.14;57.52
59545;BME280;45368;55.002;-1.592;2022-10-16T05:03:47;99061.42;;;7.23;56.79
59545;BME280;45368;55.002;-1.592;2022-10-16T05:06:15;99065.46;;;7.30;56.64
59545;BME280;45368;55.002;-1.592;2022-10-16T05:08:42;99073.26;;;7.08;56.65
59545;BME280;45368;55.002;-1.592;2022-10-16T05:11:09;99089.27;;;7.14;56.73
59545;BME280;45368;55.002;-1.592;2022-10-16T05:13:36;99089.97;;;7.11;57.45
59545;BME280;45368;55.002;-1.592;2022-10-16T05:16:03;99083.09;;;6.75;58.37
59545;BME280;45368;55.002;-1.592;2022-10-16T05:18:30;99080.88;;;6.80;58.45
59545;BME280;45368;55.002;-1.592;2022-10-16T05:20:57;99097.75;;;7.56;56.41
59545;BME280;45368;55.002;-1.592;2022-10-16T05:23:24;99109.61;;;7.31;57.88
59545;BME280;45368;55.002;-1.592;2022-10-16T05:25:53;99110.60;;;7.23;57.08
59545;BME280;45368;55.002;-1.592;2022-10-16T05:28:21;99111.87;;;6.90;57.70
59545;BME280;45368;55.002;-1.592;2022-10-16T05:30:47;99111.16;;;7.03;58.00
59545;BME280;45368;55.002;-1.592;2022-10-16T05:33:15;99115.24;;;7.35;57.41
59545;BME280;45368;55.002;-1.592;2022-10-16T05:35:42;99112.38;;;7.50;56.45
59545;BME280;45368;55.002;-1.592;2022-10-16T05:38:09;99124.59;;;7.48;56.62
59545;BME280;45368;55.002;-1.592;2022-10-16T05:40:37;99124.22;;;7.36;56.96
59545;BME280;45368;55.002;-1.592;2022-10-16T05:43:04;99114.92;;;7.31;57.07
59545;BME280;45368;55.002;-1.592;2022-10-16T05:45:31;99107.48;;;7.46;56.22
59545;BME280;45368;55.002;-1.592;2022-10-16T05:47:57;99120.40;;;7.86;55.62
59545;BME280;45368;55.002;-1.592;2022-10-16T05:50:24;99121.25;;;7.65;56.25
59545;BME280;45368;55.002;-1.592;2022-10-16T05:52:51;99127.97;;;7.94;55.10
59545;BME280;45368;55.002;-1.592;2022-10-16T05:55:18;99119.20;;;7.73;56.01
59545;BME280;45368;55.002;-1.592;2022-10-16T05:57:46;99133.12;;;6.64;56.58
59545;BME280;45368;55.002;-1.592;2022-10-16T06:00:13;99133.22;;;7.30;56.23
59545;BME280;45368;55.002;-1.592;2022-10-16T06:02:41;99141.06;;;7.94;54.99
59545;BME280;45368;55.002;-1.592;2022-10-16T06:05:08;99142.27;;;7.32;55.22
59545;BME280;45368;55.002;-1.592;2022-10-16T06:07:35;99141.81;;;7.57;55.27
59545;BME280;45368;55.002;-1.592;2022-10-16T06:10:04;99148.29;;;7.48;55.12
59545;BME280;45368;55.002;-1.592;2022-10-16T06:12:31;99157.50;;;7.14;56.54
59545;BME280;45368;55.002;-1.592;2022-10-16T06:14:58;99168.43;;;6.73;57.00
59545;BME280;45368;55.002;-1.592;2022-10-16T06:17:25;99164.33;;;6.59;57.98
59545;BME280;45368;55.002;-1.592;2022-10-16T06:19:52;99171.33;;;6.53;57.71
59545;BME280;45368;55.002;-1.592;2022-10-16T06:22:19;99174.07;;;7.03;56.93
59545;BME280;45368;55.002;-1.592;2022-10-16T06:24:46;99184.99;;;6.69;57.34
59545;BME280;45368;55.002;-1.592;2022-10-16T06:27:13;99201.45;;;7.02;56.77
59545;BME280;45368;55.002;-1.592;2022-10-16T06:29:40;99188.88;;;7.60;56.51
59545;BME280;45368;55.002;-1.592;2022-10-16T06:32:07;99201.59;;;6.72;57.72
59545;BME280;45368;55.002;-1.592;2022-10-16T06:34:34;99216.25;;;6.91;57.81
59545;BME280;45368;55.002;-1.592;2022-10-16T06:37:00;99201.63;;;7.14;57.55
59545;BME280;45368;55.002;-1.592;2022-10-16T06:39:27;99203.61;;;7.26;57.59
59545;BME280;45368;55.002;-1.592;2022-10-16T06:41:54;99210.87;;;7.19;57.95
59545;BME280;45368;55.002;-1.592;2022-10-16T06:44:21;99207.96;;;7.14;57.98
59545;BME280;45368;55.002;-1.592;2022-10-16T06:46:48;99201.55;;;7.58;56.83
59545;BME280;45368;55.002;-1.592;2022-10-16T06:49:15;99209.51;;;7.03;58.40
59545;BME280;45368;55.002;-1.592;2022-10-16T06:51:42;99218.35;;;7.42;57.72
59545;BME280;45368;55.002;-1.592;2022-10-16T06:54:09;99238.04;;;7.05;58.32
59545;BME280;45368;55.002;-1.592;2022-10-16T06:56:36;99233.34;;;7.05;58.53
59545;BME280;45368;55.002;-1.592;2022-10-16T06:59:03;99248.19;;;6.77;59.02
59545;BME280;45368;55.002;-1.592;2022-10-16T07:01:31;99244.95;;;7.04;58.74
59545;BME280;45368;55.002;-1.592;2022-10-16T07:03:59;99265.18;;;7.32;58.35
59545;BME280;45368;55.002;-1.592;2022-10-16T07:06:30;99273.96;;;6.73;60.17
59545;BME280;45368;55.002;-1.592;2022-10-16T07:08:58;99276.43;;;7.16;59.36
59545;BME280;45368;55.002;-1.592;2022-10-16T07:11:26;99284.11;;;7.10;58.89
59545;BME280;45368;55.002;-1.592;2022-10-16T07:13:53;99301.06;;;7.44;58.83
59545;BME280;45368;55.002;-1.592;2022-10-16T07:16:24;99310.35;;;7.30;58.40
59545;BME280;45368;55.002;-1.592;2022-10-16T07:18:53;99318.10;;;7.41;58.70
59545;BME280;45368;55.002;-1.592;2022-10-16T07:21:21;99302.15;;;7.03;59.36
59545;BME280;45368;55.002;-1.592;2022-10-16T07:23:50;99312.99;;;7.06;59.47
59545;BME280;45368;55.002;-1.592;2022-10-16T07:26:18;99324.36;;;6.88;61.16
59545;BME280;45368;55.002;-1.592;2022-10-16T07:28:45;99310.79;;;7.70;59.29
59545;BME280;45368;55.002;-1.592;2022-10-16T07:31:14;99309.63;;;7.36;59.54
59545;BME280;45368;55.002;-1.592;2022-10-16T07:33:43;99337.70;;;7.51;58.22
59545;BME280;45368;55.002;-1.592;2022-10-16T07:36:11;99341.77;;;7.68;57.74
59545;BME280;45368;55.002;-1.592;2022-10-16T07:38:38;99358.65;;;7.71;58.64
59545;BME280;45368;55.002;-1.592;2022-10-16T07:41:07;99361.60;;;7.71;59.08
59545;BME280;45368;55.002;-1.592;2022-10-16T07:43:35;99377.75;;;7.64;59.07
59545;BME280;45368;55.002;-1.592;2022-10-16T07:46:02;99383.67;;;7.54;58.90
59545;BME280;45368;55.002;-1.592;2022-10-16T07:48:32;99391.18;;;7.94;59.41
59545;BME280;45368;55.002;-1.592;2022-10-16T07:51:01;99391.22;;;7.78;58.79
59545;BME280;45368;55.002;-1.592;2022-10-16T07:53:28;99403.48;;;7.92;58.49
59545;BME280;45368;55.002;-1.592;2022-10-16T07:55:58;99417.16;;;8.06;58.71
59545;BME280;45368;55.002;-1.592;2022-10-16T07:58:25;99426.86;;;7.88;58.48
59545;BME280;45368;55.002;-1.592;2022-10-16T08:00:52;99437.44;;;7.92;58.78
59545;BME280;45368;55.002;-1.592;2022-10-16T08:03:19;99432.49;;;7.87;58.64
59545;BME280;45368;55.002;-1.592;2022-10-16T08:05:46;99455.39;;;7.57;59.65
59545;BME280;45368;55.002;-1.592;2022-10-16T08:08:14;99468.10;;;7.73;59.82
59545;BME280;45368;55.002;-1.592;2022-10-16T08:10:42;99458.34;;;7.88;59.64
59545;BME280;45368;55.002;-1.592;2022-10-16T08:13:09;99455.47;;;8.11;58.66
59545;BME280;45368;55.002;-1.592;2022-10-16T08:15:36;99459.52;;;8.04;59.07
59545;BME280;45368;55.002;-1.592;2022-10-16T08:18:05;99491.51;;;7.55;60.45
59545;BME280;45368;55.002;-1.592;2022-10-16T08:20:33;99473.19;;;7.67;60.63
59545;BME280;45368;55.002;-1.592;2022-10-16T08:23:01;99474.49;;;8.08;58.54
59545;BME280;45368;55.002;-1.592;2022-10-16T08:25:28;99485.25;;;8.37;58.70
59545;BME280;45368;55.002;-1.592;2022-10-16T08:27:56;99500.87;;;8.19;58.63
59545;BME280;45368;55.002;-1.592;2022-10-16T08:30:23;99526.35;;;8.14;58.86
59545;BME280;45368;55.002;-1.592;2022-10-16T08:32:50;99523.93;;;8.41;59.46
59545;BME280;45368;55.002;-1.592;2022-10-16T08:35:17;99520.21;;;7.95;59.62
59545;BME280;45368;55.002;-1.592;2022-10-16T08:37:44;99549.83;;;8.14;59.11
59545;BME280;45368;55.002;-1.592;2022-10-16T08:40:18;99544.76;;;8.35;58.96
59545;BME280;45368;55.002;-1.592;2022-10-16T08:43:02;99552.87;;;8.43;58.15
59545;BME280;45368;55.002;-1.592;2022-10-16T08:45:42;99564.68;;;7.91;59.66
59545;BME280;45368;55.002;-1.592;2022-10-16T08:48:20;99576.48;;;8.35;58.46
59545;BME280;45368;55.002;-1.592;2022-10-16T08:50:49;99578.73;;;8.38;57.87
59545;BME280;45368;55.002;-1.592;2022-10-16T08:53:22;99581.87;;;8.52;57.59
59545;BME280;45368;55.002;-1.592;2022-10-16T08:55:52;99584.96;;;8.86;56.40
59545;BME280;45368;55.002;-1.592;2022-10-16T08:58:21;99593.64;;;8.47;57.02
59545;BME280;45368;55.002;-1.592;2022-10-16T09:00:51;99600.65;;;8.62;57.40
59545;BME280;45368;55.002;-1.592;2022-10-16T09:03:30;99606.98;;;8.59;57.63
59545;BME280;45368;55.002;-1.592;2022-10-16T09:06:12;99607.74;;;8.55;57.20
59545;BME280;45368;55.002;-1.592;2022-10-16T09:08:53;99613.91;;;8.79;56.34
59545;BME280;45368;55.002;-1.592;2022-10-16T09:11:33;99619.77;;;8.73;56.06
59545;BME280;45368;55.002;-1.592;2022-10-16T09:14:11;99622.58;;;8.96;55.48
59545;BME280;45368;55.002;-1.592;2022-10-16T09:16:48;99622.10;;;8.92;55.42
59545;BME280;45368;55.002;-1.592;2022-10-16T09:19:23;99641.97;;;8.96;55.95
59545;BME280;45368;55.002;-1.592;2022-10-16T09:21:51;99648.33;;;8.90;55.44
59545;BME280;45368;55.002;-1.592;2022-10-16T09:24:19;99657.51;;;8.89;54.51
59545;BME280;45368;55.002;-1.592;2022-10-16T09:26:47;99654.10;;;8.70;55.10
59545;BME280;45368;55.002;-1.592;2022-10-16T09:29:16;99655.41;;;9.26;53.99
59545;BME280;45368;55.002;-1.592;2022-10-16T09:31:43;99658.23;;;9.39;53.52
59545;BME280;45368;55.002;-1.592;2022-10-16T09:34:20;99670.99;;;9.76;52.87
59545;BME280;45368;55.002;-1.592;2022-10-16T09:36:49;99667.14;;;9.38;53.52
59545;BME280;45368;55.002;-1.592;2022-10-16T09:39:18;99677.34;;;9.43;53.52
59545;BME280;45368;55.002;-1.592;2022-10-16T09:41:45;99701.33;;;8.87;54.29
59545;BME280;45368;55.002;-1.592;2022-10-16T09:44:20;99693.15;;;9.44;53.34
59545;BME280;45368;55.002;-1.592;2022-10-16T09:46:49;99708.07;;;8.84;54.45
59545;BME280;45368;55.002;-1.592;2022-10-16T09:49:22;99706.34;;;9.39;53.19
59545;BME280;45368;55.002;-1.592;2022-10-16T09:51:50;99713.77;;;9.47;52.69
59545;BME280;45368;55.002;-1.592;2022-10-16T09:54:19;99714.65;;;9.80;51.44
59545;BME280;45368;55.002;-1.592;2022-10-16T09:56:48;99720.30;;;9.62;51.86
59545;BME280;45368;55.002;-1.592;2022-10-16T09:59:17;99714.50;;;9.70;51.16
59545;BME280;45368;55.002;-1.592;2022-10-16T10:01:47;99727.17;;;9.62;51.11
59545;BME280;45368;55.002;-1.592;2022-10-16T10:04:15;99735.10;;;9.83;51.43
59545;BME280;45368;55.002;-1.592;2022-10-16T10:06:48;99735.86;;;10.35;50.15
59545;BME280;45368;55.002;-1.592;2022-10-16T10:09:20;99735.27;;;10.68;49.30
59545;BME280;45368;55.002;-1.592;2022-10-16T10:11:51;99744.34;;;10.85;49.51
59545;BME280;45368;55.002;-1.592;2022-10-16T10:14:21;99764.51;;;10.04;50.61
59545;BME280;45368;55.002;-1.592;2022-10-16T10:16:50;99756.54;;;10.00;50.12
59545;BME280;45368;55.002;-1.592;2022-10-16T10:19:19;99768.97;;;9.88;51.06
59545;BME280;45368;55.002;-1.592;2022-10-16T10:21:48;99765.40;;;9.63;50.80
59545;BME280;45368;55.002;-1.592;2022-10-16T10:24:17;99769.71;;;10.32;49.90
59545;BME280;45368;55.002;-1.592;2022-10-16T10:26:52;99776.23;;;10.59;49.41
59545;BME280;45368;55.002;-1.592;2022-10-16T10:29:31;99774.00;;;10.48;50.02
59545;BME280;45368;55.002;-1.592;2022-10-16T10:32:12;99789.05;;;10.27;49.52
59545;BME280;45368;55.002;-1.592;2022-10-16T10:34:53;99794.27;;;11.12;47.79
59545;BME280;45368;55.002;-1.592;2022-10-16T10:37:35;99788.91;;;10.48;48.15
59545;BME280;45368;55.002;-1.592;2022-10-16T10:40:15;99791.69;;;10.83;47.63
59545;BME280;45368;55.002;-1.592;2022-10-16T10:42:51;99785.19;;;10.96;47.66
59545;BME280;45368;55.002;-1.592;2022-10-16T10:45:26;99804.91;;;11.18;47.26
59545;BME280;45368;55.002;-1.592;2022-10-16T10:48:04;99803.58;;;11.07;47.15
59545;BME280;45368;55.002;-1.592;2022-10-16T10:50:41;99809.48;;;11.01;45.86
59545;BME280;45368;55.002;-1.592;2022-10-16T10:53:18;99816.26;;;11.23;47.17
59545;BME280;45368;55.002;-1.592;2022-10-16T10:55:53;99833.39;;;11.27;46.56
59545;BME280;45368;55.002;-1.592;2022-10-16T10:58:57;99840.25;;;11.53;45.32
59545;BME280;45368;55.002;-1.592;2022-10-16T11:01:35;99845.65;;;12.95;43.44
59545;BME280;45368;55.002;-1.592;2022-10-16T11:04:18;99853.36;;;13.06;42.25
59545;BME280;45368;55.002;-1.592;2022-10-16T11:06:52;99865.64;;;12.78;42.92
59545;BME280;45368;55.002;-1.592;2022-10-16T11:09:25;99865.12;;;13.86;40.96
59545;BME280;45368;55.002;-1.592;2022-10-16T11:11:59;99857.31;;;15.09;39.14
59545;BME280;45368;55.002;-1.592;2022-10-16T11:14:31;99858.51;;;14.31;40.07
59545;BME280;45368;55.002;-1.592;2022-10-16T11:17:06;99862.62;;;16.27;36.52
59545;BME280;45368;55.002;-1.592;2022-10-16T11:19:39;99866.68;;;17.75;34.27
59545;BME280;45368;55.002;-1.592;2022-10-16T11:22:15;99877.12;;;15.70;36.66
59545;BME280;45368;55.002;-1.592;2022-10-16T11:24:48;99876.17;;;16.32;36.08
59545;BME280;45368;55.002;-1.592;2022-10-16T11:27:21;99880.99;;;15.03;37.10
59545;BME280;45368;55.002;-1.592;2022-10-16T11:29:57;99881.96;;;16.23;35.41
59545;BME280;45368;55.002;-1.592;2022-10-16T11:32:30;99901.01;;;16.63;34.92
59545;BME280;45368;55.002;-1.592;2022-10-16T11:35:04;99906.20;;;14.74;37.31
59545;BME280;45368;55.002;-1.592;2022-10-16T11:37:41;99903.73;;;14.02;38.95
59545;BME280;45368;55.002;-1.592;2022-10-16T11:40:19;99921.54;;;13.41;39.97
59545;BME280;45368;55.002;-1.592;2022-10-16T11:42:54;99927.44;;;12.47;42.27
59545;BME280;45368;55.002;-1.592;2022-10-16T11:45:29;99918.01;;;12.21;42.90
59545;BME280;45368;55.002;-1.592;2022-10-16T11:48:04;99922.39;;;11.99;43.74
59545;BME280;45368;55.002;-1.592;2022-10-16T11:50:42;99925.76;;;11.94;43.74
59545;BME280;45368;55.002;-1.592;2022-10-16T11:53:16;99925.22;;;11.81;44.03
59545;BME280;45368;55.002;-1.592;2022-10-16T11:55:49;99924.43;;;12.37;43.85
59545;BME280;45368;55.002;-1.592;2022-10-16T11:58:22;99927.38;;;12.71;42.32
59545;BME280;45368;55.002;-1.592;2022-10-16T12:00:58;99918.02;;;13.32;40.94
59545;BME280;45368;55.002;-1.592;2022-10-16T12:03:31;99922.27;;;11.59;42.72
59545;BME280;45368;55.002;-1.592;2022-10-16T12:06:13;99933.71;;;11.69;43.31
59545;BME280;45368;55.002;-1.592;2022-10-16T12:08:45;99931.40;;;11.32;44.41
59545;BME280;45368;55.002;-1.592;2022-10-16T12:11:24;99947.13;;;11.82;43.74
59545;BME280;45368;55.002;-1.592;2022-10-16T12:14:06;99953.62;;;11.99;43.51
59545;BME280;45368;55.002;-1.592;2022-10-16T12:16:37;99963.49;;;12.12;43.40
59545;BME280;45368;55.002;-1.592;2022-10-16T12:19:13;99977.58;;;11.71;43.31
59545;BME280;45368;55.002;-1.592;2022-10-16T12:21:41;99976.66;;;11.98;42.74
59545;BME280;45368;55.002;-1.592;2022-10-16T12:24:22;99986.03;;;12.03;43.25
59545;BME280;45368;55.002;-1.592;2022-10-16T12:26:53;99987.21;;;11.72;43.09
59545;BME280;45368;55.002;-1.592;2022-10-16T12:29:30;99995.85;;;11.52;43.28
59545;BME280;45368;55.002;-1.592;2022-10-16T12:31:59;99990.21;;;12.14;42.55
59545;BME280;45368;55.002;-1.592;2022-10-16T12:34:29;100005.63;;;11.67;43.05
59545;BME280;45368;55.002;-1.592;2022-10-16T12:37:08;100005.97;;;11.63;43.18
59545;BME280;45368;55.002;-1.592;2022-10-16T12:39:37;100015.48;;;11.57;43.12
59545;BME280;45368;55.002;-1.592;2022-10-16T12:42:06;100014.82;;;11.83;43.05
59545;BME280;45368;55.002;-1.592;2022-10-16T12:44:46;100011.81;;;11.57;42.44
59545;BME280;45368;55.002;-1.592;2022-10-16T12:47:21;100018.04;;;11.24;43.15
59545;BME280;45368;55.002;-1.592;2022-10-16T12:49:51;100028.41;;;11.41;43.01
59545;BME280;45368;55.002;-1.592;2022-10-16T12:52:28;100030.53;;;11.43;42.10
59545;BME280;45368;55.002;-1.592;2022-10-16T12:55:01;100028.36;;;11.41;41.68
59545;BME280;45368;55.002;-1.592;2022-10-16T12:57:39;100025.74;;;12.06;41.82
59545;BME280;45368;55.002;-1.592;2022-10-16T13:00:18;100037.98;;;11.69;41.63
59545;BME280;45368;55.002;-1.592;2022-10-16T13:03:08;100045.10;;;12.13;41.24
59545;BME280;45368;55.002;-1.592;2022-10-16T13:05:55;100050.46;;;12.63;41.01
59545;BME280;45368;55.002;-1.592;2022-10-16T13:08:39;100063.65;;;12.80;40.01
59545;BME280;45368;55.002;-1.592;2022-10-16T13:11:14;100070.64;;;12.20;40.86
59545;BME280;45368;55.002;-1.592;2022-10-16T13:14:31;100076.65;;;12.11;41.49